Flight Track Log - Related Links

Times and Time Zones

All times are in EDT time to prevent confusion due to time zone crossing. See the AAY875 flight status page for this flight to view local times or setup timezone preferences in your user account.


Time Position Orientation Groundspeed Altitude Reporting Facility
EDT Latitude Longitude Course Direction KTS MPH feet Rate Location/Type
Tue 03:37:26 PM 44.7669 -68.7769 209° Southwest 184 212 2,800  Level Boston Center
Tue 03:38:27 PM 44.7172 -68.8161 209° Southwest 238 274 4,600 2,390 Climbing Boston Center
Tue 03:39:29 PM 44.6847 -68.9078 244° Southwest 257 296 7,700 2,780 Climbing Boston Center
Tue 03:40:30 PM 44.6500 -69.0008 242° Southwest 262 302 10,300 2,016 Climbing Boston Center
Tue 03:41:31 PM 44.6117 -69.1069 243° Southwest 302 348 11,800 1,770 Climbing Boston Center
Tue 03:42:32 PM 44.5667 -69.2314 243° Southwest 348 400 13,900 2,244 Climbing Boston Center
Tue 03:43:34 PM 44.5192 -69.3586 242° Southwest 358 412 16,400 2,439 Climbing Boston Center
Tue 03:44:35 PM 44.4703 -69.4900 242° Southwest 373 429 18,900 1,869 Climbing Boston Center
Tue 03:45:36 PM 44.4214 -69.6231 243° Southwest 378 435 20,200 1,525 Climbing Boston Center
Tue 03:46:37 PM 44.3725 -69.7553 243° Southwest 378 435 22,000 1,512 Climbing Boston Center
Tue 03:47:39 PM 44.3200 -69.8928 242° Southwest 395 455 23,300 1,659 Climbing Boston Center
Tue 03:48:40 PM 44.2675 -70.0339 243° Southwest 405 466 25,400 2,016 Climbing Boston Center
Tue 03:49:41 PM 44.2161 -70.1692 242° Southwest 397 457 27,400 1,854 Climbing Boston Center
Tue 03:50:43 PM 44.1656 -70.3000 242° Southwest 384 442 29,200 1,659 Climbing Boston Center
Tue 03:51:44 PM 44.0994 -70.4514 239° Southwest 401 461 30,800 1,328 Climbing Boston Center
Tue 03:52:45 PM 44.0192 -70.5425 219° Southwest 372 428 31,900 590 Climbing Boston Center
Tue 03:53:46 PM 43.9383 -70.6358 220° Southwest 377 434 32,000 49 Climbing Boston Center
Tue 03:54:48 PM 43.8578 -70.7300 220° Southwest 378 435 32,000  Level Boston Center
Tue 03:55:49 PM 43.7764 -70.8244 220° Southwest 379 436 32,000  Level Boston Center
Tue 03:56:50 PM 43.6956 -70.9206 221° Southwest 380 437 32,000  Level Boston Center
Tue 03:57:52 PM 43.6194 -71.0058 219° Southwest 377 434 32,000  Level Boston Center
Tue 03:58:53 PM 43.5375 -71.0997 220° Southwest 381 438 32,000  Level Boston Center
Tue 03:59:54 PM 43.4567 -71.1947 220° Southwest 382 440 32,000  Level Boston Center
Tue 04:00:56 PM 43.3592 -71.3056 220° Southwest 380 437 32,000  Level Boston Center
Tue 04:01:57 PM 43.2789 -71.3983 220° Southwest 378 435 32,000  Level Boston Center
Tue 04:02:58 PM 43.1956 -71.4917 219° Southwest 383 441 32,000  Level Boston Center
Tue 04:03:59 PM 43.1128 -71.5858 220° Southwest 385 443 32,000  Level Boston Center
Tue 04:05:01 PM 43.0289 -71.6811 220° Southwest 391 450 32,000  Level Boston Center
Tue 04:06:02 PM 42.9456 -71.7742 219° Southwest 389 448 32,000  Level Boston Center
Tue 04:07:03 PM 42.8628 -71.8683 220° Southwest 388 447 32,000  Level Boston Center
Tue 04:08:04 PM 42.7783 -71.9631 219° Southwest 390 449 32,000  Level Boston Center
Tue 04:09:06 PM 42.6931 -72.0567 219° Southwest 392 451 32,000  Level Boston Center
Tue 04:10:07 PM 42.6094 -72.1503 220° Southwest 391 450 32,000  Level Boston Center
Tue 04:11:08 PM 42.5081 -72.2611 219° Southwest 391 450 32,000  Level Boston Center
Tue 04:12:10 PM 42.4358 -72.3403 219° Southwest 390 449 32,000  Level Boston Center
Tue 04:13:11 PM 42.3389 -72.4483 219° Southwest 390 449 32,000  Level Boston Center
Tue 04:14:12 PM 42.2539 -72.5403 219° Southwest 390 449 32,000  Level Boston Center
Tue 04:15:13 PM 42.1692 -72.6322 219° Southwest 390 449 32,000  Level Boston Center
Tue 04:16:15 PM 42.0842 -72.7239 219° Southwest 390 449 32,000  Level Boston Center
Tue 04:17:16 PM 41.9997 -72.8175 219° Southwest 390 449 32,000  Level Boston Center
Tue 04:18:17 PM 41.9147 -72.9086 219° Southwest 390 449 32,000  Level Boston Center
Tue 04:19:19 PM 41.8289 -72.9997 218° Southwest 390 449 32,000  Level Boston Center
Tue 04:20:20 PM 41.7450 -73.0900 219° Southwest 388 447 32,000  Level Boston Center
Tue 04:21:21 PM 41.6603 -73.1803 219° Southwest 388 447 32,000  Level Boston Center
Tue 04:22:23 PM 41.5761 -73.2694 218° Southwest 387 445 32,000  Level Boston Center
Tue 04:23:24 PM 41.4781 -73.3744 219° Southwest 387 445 32,000  Level Boston Center
Tue 04:24:25 PM 41.3928 -73.4619 218° Southwest 388 447 32,000  Level Boston Center
Tue 04:25:27 PM 41.3106 -73.5508 219° Southwest 387 445 32,000  Level Boston Center
Tue 04:26:28 PM 41.2375 -73.6511 226° Southwest 379 436 32,000  Level Boston Center
Tue 04:27:29 PM 41.1719 -73.7625 232° Southwest 382 440 32,000  Level Boston Center
Tue 04:28:31 PM 41.1075 -73.8714 232° Southwest 379 436 32,000  Level Boston Center
Tue 04:29:13 PM 41.0536 -73.9711 234° Southwest 387 445 32,000  Level New York Center
Tue 04:30:14 PM 40.9992 -74.0564 230° Southwest 382 440 32,000  Level New York Center
Tue 04:31:14 PM 40.9225 -74.1875 232° Southwest 382 440 32,000  Level New York Center
Tue 04:32:15 PM 40.8569 -74.2939 231° Southwest 382 440 32,000  Level New York Center
Tue 04:33:13 PM 40.7911 -74.4028 231° Southwest 387 445 32,000  Level New York Center
Tue 04:34:14 PM 40.7253 -74.5089 231° Southwest 387 445 32,000  Level New York Center
Tue 04:35:15 PM 40.6617 -74.6147 232° Southwest 387 445 32,000  Level New York Center
Tue 04:36:13 PM 40.5933 -74.7231 230° Southwest 387 445 32,000  Level New York Center
Tue 04:37:13 PM 40.5253 -74.8228 228° Southwest 387 445 32,000  Level New York Center
Tue 04:38:15 PM 40.4531 -74.9275 228° Southwest 387 445 32,000  Level New York Center
Tue 04:39:13 PM 40.3828 -75.0269 227° Southwest 382 440 32,000  Level New York Center
Tue 04:40:14 PM 40.3125 -75.1261 227° Southwest 382 440 32,000  Level New York Center
Tue 04:41:14 PM 40.2397 -75.2275 227° Southwest 382 440 32,000  Level New York Center
Tue 04:42:15 PM 40.1672 -75.3289 227° Southwest 382 440 32,000  Level New York Center
Tue 04:43:15 PM 40.0967 -75.4272 227° Southwest 382 440 32,000 305 Level New York Center
Tue 04:44:13 PM 40.0258 -75.5283 228° Southwest 382 440 32,600 915 Climbing New York Center
Tue 04:45:13 PM 39.9553 -75.6236 226° Southwest 382 440 33,800 694 Climbing New York Center
Tue 04:46:14 PM 39.8886 -75.7219 229° Southwest 377 434 34,000 98 Climbing New York Center
Tue 04:47:15 PM 39.8261 -75.8228 231° Southwest 371 427 34,000  Level New York Center
Tue 04:48:15 PM 39.7631 -75.9264 232° Southwest 366 421 34,000  Level New York Center
Tue 04:49:15 PM 39.7003 -76.0269 231° Southwest 366 421 34,000  Level New York Center
Tue 04:50:13 PM 39.6356 -76.1247 229° Southwest 361 415 34,000  Level New York Center
Tue 04:51:43 PM 39.5472 -76.2644 231° Southwest 359 413 34,000  Level Washington Center
Tue 04:52:43 PM 39.4819 -76.3606 229° Southwest 359 413 34,000  Level Washington Center
Tue 04:53:43 PM 39.4189 -76.4619 231° Southwest 359 413 34,000  Level Washington Center
Tue 04:54:41 PM 39.3492 -76.5631 228° Southwest 365 420 34,000  Level Washington Center
Tue 04:55:42 PM 39.2858 -76.6642 231° Southwest 370 426 34,000  Level Washington Center
Tue 04:56:42 PM 39.2244 -76.7625 231° Southwest 370 426 34,000  Level Washington Center
Tue 04:57:43 PM 39.1611 -76.8606 230° Southwest 370 426 34,000  Level Washington Center
Tue 04:58:43 PM 39.0953 -76.9608 230° Southwest 375 432 34,000  Level Washington Center
Tue 04:59:41 PM 39.0294 -77.0558 228° Southwest 375 432 34,000  Level Washington Center
Tue 05:00:42 PM 38.9514 -77.1397 220° Southwest 370 426 34,000  Level Washington Center
Tue 05:01:43 PM 38.8731 -77.2261 221° Southwest 370 426 34,000  Level Washington Center
Tue 05:02:41 PM 38.7883 -77.3175 220° Southwest 370 426 34,000  Level Washington Center
Tue 05:03:41 PM 38.7122 -77.4008 221° Southwest 370 426 34,000  Level Washington Center
Tue 05:04:43 PM 38.6358 -77.4894 222° Southwest 370 426 34,000  Level Washington Center
Tue 05:05:42 PM 38.5572 -77.5722 219° Southwest 370 426 34,000  Level Washington Center
Tue 05:06:42 PM 38.4786 -77.6550 220° Southwest 370 426 34,000  Level Washington Center
Tue 05:07:40 PM 38.4000 -77.7403 220° Southwest 370 426 34,000  Level Washington Center
Tue 05:08:41 PM 38.3233 -77.8256 221° Southwest 370 426 34,000  Level Washington Center
Tue 05:09:42 PM 38.2447 -77.9078 219° Southwest 370 426 34,000  Level Washington Center
Tue 05:10:42 PM 38.1681 -77.9897 220° Southwest 370 426 34,000  Level Washington Center
Tue 05:11:43 PM 38.0892 -78.0744 220° Southwest 370 426 34,000  Level Washington Center
Tue 05:12:41 PM 38.0125 -78.1536 219° Southwest 370 426 34,000  Level Washington Center
Tue 05:13:41 PM 37.9419 -78.2275 220° Southwest 364 419 34,000  Level Washington Center
Tue 05:14:42 PM 37.8506 -78.3136 217° Southwest 376 433 34,000  Level Washington Center
Tue 05:15:43 PM 37.7672 -78.3894 216° Southwest 376 433 34,000  Level Washington Center
Tue 05:16:41 PM 37.6839 -78.4731 218° Southwest 376 433 34,000  Level Washington Center
Tue 05:17:42 PM 37.6008 -78.5486 216° Southwest 376 433 34,000  Level Washington Center
Tue 05:18:43 PM 37.5239 -78.6214 217° Southwest 376 433 34,000  Level Washington Center
Tue 05:19:44 PM 37.4406 -78.6967 216° Southwest 376 433 34,000  Level Washington Center
Tue 05:20:41 PM 37.3572 -78.7742 216° Southwest 376 433 34,000  Level Washington Center
Tue 05:21:42 PM 37.2717 -78.8542 217° Southwest 376 433 34,000  Level Washington Center
Tue 05:22:43 PM 37.1881 -78.9314 216° Southwest 376 433 34,000  Level Washington Center
Tue 05:23:41 PM 37.0939 -79.0186 216° Southwest 376 433 34,000  Level Washington Center
Tue 05:24:42 PM 37.0083 -79.0953 216° Southwest 376 433 34,000  Level Washington Center
Tue 05:25:43 PM 36.9203 -79.1772 217° Southwest 381 438 34,000  Level Washington Center
Tue 05:26:42 PM 36.8364 -79.2564 217° Southwest 381 438 34,000  Level Washington Center
Tue 05:27:42 PM 36.7506 -79.3353 216° Southwest 381 438 34,000  Level Washington Center
Tue 05:28:42 PM 36.6711 -79.4092 217° Southwest 386 444 34,000  Level Washington Center
Tue 05:29:43 PM 36.5872 -79.4878 217° Southwest 386 444 34,000  Level Washington Center
Tue 05:30:41 PM 36.4992 -79.5658 215° Southwest 391 450 34,000  Level Washington Center
Tue 05:32:53 PM 36.2981 -79.7444 216° Southwest 388 447 34,000  Level Atlanta Center
Tue 05:33:53 PM 36.2069 -79.8264 216° Southwest 388 447 34,000  Level Atlanta Center
Tue 05:34:53 PM 36.1200 -79.9028 215° Southwest 394 453 34,000  Level Atlanta Center
Tue 05:35:53 PM 36.0411 -79.9736 216° Southwest 394 453 34,000  Level Atlanta Center
Tue 05:36:53 PM 35.9406 -80.0275 203° Southwest 394 453 34,000  Level Atlanta Center
Tue 05:37:53 PM 35.8381 -80.0786 202° Southwest 399 459 34,000  Level Atlanta Center
Tue 05:38:53 PM 35.7331 -80.1297 202° Southwest 399 459 34,000  Level Atlanta Center
Tue 05:39:53 PM 35.6328 -80.1856 204° Southwest 399 459 34,000  Level Atlanta Center
Tue 05:40:53 PM 35.5300 -80.2364 202° Southwest 404 465 34,000  Level Atlanta Center
Tue 05:41:53 PM 35.4272 -80.2897 203° Southwest 404 465 34,000  Level Atlanta Center
Tue 05:42:53 PM 35.3244 -80.3375 201° Southwest 410 472 34,000  Level Atlanta Center
Tue 05:43:53 PM 35.2175 -80.3906 202° Southwest 410 472 34,000  Level Atlanta Center
Tue 05:44:45 PM 35.1183 -80.4411 203° Southwest 411 473 34,000  Level Jacksonville Center
Tue 05:45:45 PM 35.0153 -80.4925 202° Southwest 391 450 34,000  Level Jacksonville Center
Tue 05:46:45 PM 34.9097 -80.5458 203° Southwest 391 450 34,000  Level Jacksonville Center
Tue 05:47:45 PM 34.8292 -80.5836 201° Southwest 391 450 34,000  Level Jacksonville Center
Tue 05:48:45 PM 34.7197 -80.6369 202° Southwest 391 450 34,000  Level Jacksonville Center
Tue 05:49:45 PM 34.6183 -80.6900 203° Southwest 391 450 34,000  Level Jacksonville Center
Tue 05:50:45 PM 34.5108 -80.7408 201° Southwest 402 463 34,000  Level Jacksonville Center
Tue 05:51:45 PM 34.4072 -80.7961 204° Southwest 408 470 34,000  Level Jacksonville Center
Tue 05:52:45 PM 34.3058 -80.8439 201° Southwest 409 471 34,000  Level Jacksonville Center
Tue 05:53:45 PM 34.2106 -80.8889 201° Southwest 393 452 34,000  Level Jacksonville Center
Tue 05:54:45 PM 34.1092 -80.9364 201° Southwest 393 452 34,000  Level Jacksonville Center
Tue 05:55:45 PM 34.0056 -80.9836 201° Southwest 393 452 34,000  Level Jacksonville Center
Tue 05:56:45 PM 33.9019 -81.0336 202° Southwest 398 458 34,000  Level Jacksonville Center
Tue 05:57:45 PM 33.7983 -81.0856 203° Southwest 398 458 34,000  Level Jacksonville Center
Tue 05:58:45 PM 33.6947 -81.1378 203° Southwest 398 458 34,000  Level Jacksonville Center
Tue 05:59:45 PM 33.5933 -81.1869 202° Southwest 398 458 34,000  Level Jacksonville Center
Tue 06:00:45 PM 33.4897 -81.2389 203° Southwest 398 458 34,000  Level Jacksonville Center
Tue 06:01:45 PM 33.3858 -81.2856 201° Southwest 398 458 34,000  Level Jacksonville Center
Tue 06:02:45 PM 33.2842 -81.3372 203° Southwest 398 458 34,000  Level Jacksonville Center
Tue 06:03:45 PM 33.1847 -81.3861 202° Southwest 398 458 34,000  Level Jacksonville Center
Tue 06:04:45 PM 33.0808 -81.4372 202° Southwest 393 452 34,000  Level Jacksonville Center
Tue 06:05:45 PM 32.9772 -81.4911 204° Southwest 393 452 34,000  Level Jacksonville Center
Tue 06:06:45 PM 32.8733 -81.5397 201° Southwest 405 466 34,000  Level Jacksonville Center
Tue 06:07:45 PM 32.7672 -81.5906 202° Southwest 405 466 34,000  Level Jacksonville Center
Tue 06:08:45 PM 32.6553 -81.6442 202° Southwest 405 466 34,000  Level Jacksonville Center
Tue 06:09:45 PM 32.5617 -81.6775 197° South 399 459 34,000  Level Jacksonville Center
Tue 06:10:45 PM 32.4367 -81.7061 191° South 414 476 34,000  Level Jacksonville Center
Tue 06:11:45 PM 32.3242 -81.7322 191° South 414 476 34,000  Level Jacksonville Center
Tue 06:12:45 PM 32.2219 -81.7556 191° South 414 476 34,000  Level Jacksonville Center
Tue 06:14:45 PM 31.9969 -81.8075 191° South 414 476 34,000  Level Jacksonville Center
Tue 06:15:45 PM 31.8719 -81.8358 191° South 414 476 34,000  Level Jacksonville Center
Tue 06:16:45 PM 31.7614 -81.8639 192° South 414 476 34,000  Level Jacksonville Center
Tue 06:17:45 PM 31.6572 -81.8894 192° South 414 476 34,000  Level Jacksonville Center
Tue 06:18:45 PM 31.5344 -81.9175 191° South 414 476 34,000  Level Jacksonville Center
Tue 06:20:45 PM 31.3050 -81.9711 191° South 419 482 34,000  Level Jacksonville Center
Tue 06:21:45 PM 31.1925 -81.9964 191° South 419 482 34,000  Level Jacksonville Center
Tue 06:22:45 PM 31.0800 -82.0217 191° South 419 482 34,000  Level Jacksonville Center
Tue 06:23:45 PM 30.9675 -82.0494 192° South 419 482 34,000  Level Jacksonville Center
Tue 06:24:45 PM 30.8528 -82.0747 191° South 419 482 34,000  Level Jacksonville Center
Tue 06:25:45 PM 30.7358 -82.0997 190° South 424 488 34,000  Level Jacksonville Center
Tue 06:26:45 PM 30.6256 -82.1272 192° South 424 488 34,000  Level Jacksonville Center
Tue 06:27:45 PM 30.5233 -82.1450 189° South 417 480 34,000  Level Jacksonville Center
Tue 06:28:45 PM 30.4106 -82.1725 192° South 417 480 34,000  Level Jacksonville Center
Tue 06:29:45 PM 30.2981 -82.1972 191° South 417 480 34,000  Level Jacksonville Center
Tue 06:30:45 PM 30.1833 -82.2222 191° South 417 480 34,000  Level Jacksonville Center
Tue 06:31:45 PM 30.0708 -82.2492 192° South 417 480 34,000 -300 Level Jacksonville Center
Tue 06:32:45 PM 29.9603 -82.2764 192° South 412 474 33,400 -1,300 Descending Jacksonville Center
Tue 06:33:45 PM 29.8456 -82.3036 192° South 412 474 31,400 -2,000 Descending Jacksonville Center
Tue 06:34:45 PM 29.7183 -82.3258 189° South 412 474 29,400 -2,000 Descending Jacksonville Center
Tue 06:35:45 PM 29.6036 -82.3553 193° South 418 481 27,400 -1,650 Descending Jacksonville Center
Tue 06:36:45 PM 29.4825 -82.3461 176° South 429 494 26,100 -1,350 Descending Jacksonville Center
Tue 06:37:45 PM 29.3656 -82.3350 175° South 429 494 24,700 -1,750 Descending Jacksonville Center
Tue 06:38:45 PM 29.2528 -82.3214 174° South 422 486 22,600 -2,300 Descending Jacksonville Center
Tue 06:39:45 PM 29.1461 -82.3053 172° South 410 472 20,100 -2,500 Descending Jacksonville Center
Tue 06:40:45 PM 29.0417 -82.2942 175° South 394 453 17,600 -2,350 Descending Jacksonville Center
Tue 06:41:45 PM 28.9353 -82.2828 175° South 388 447 15,400 -2,300 Descending Jacksonville Center
Tue 06:42:45 PM 28.8331 -82.2692 173° South 383 441 13,000 -1,249 Descending Jacksonville Center
Tue 06:44:38 PM 28.6500 -82.2500 175° South 345 397 11,800 -719 Descending Tampa TRACON
Tue 06:45:32 PM 28.5667 -82.2500 180° South 354 407 11,000 -842 Descending Tampa TRACON
Tue 06:46:32 PM 28.4667 -82.2667 188° South 328 377 10,200 -476 Descending Tampa TRACON
Tue 06:47:38 PM 28.4333 -82.3500 246° West 250 288 10,000 -95 Descending Tampa TRACON
Tue 06:48:38 PM 28.4167 -82.4333 257° West 258 297 10,000  Level Tampa TRACON
Tue 06:49:38 PM 28.3833 -82.5167 246° West 258 297 10,000 -400 Level Tampa TRACON
Tue 06:50:38 PM 28.3500 -82.5833 240° Southwest 266 306 9,200 -1,167 Descending Tampa TRACON
Tue 06:51:26 PM 28.3167 -82.6333 233° Southwest 281 323 7,900 -1,222 Descending Tampa TRACON
Tue 06:52:26 PM 28.2500 -82.6667 204° Southwest 276 318 7,000 -429 Descending Tampa TRACON
Tue 06:53:32 PM 28.1833 -82.7167 213° Southwest 272 313 7,000 -591 Level Tampa TRACON
Tue 06:54:38 PM 28.1000 -82.7667 208° Southwest 270 311 5,700 -1,263 Descending Tampa TRACON
Tue 06:55:26 PM 28.0500 -82.7833 196° South 269 310 4,600 -944 Descending Tampa TRACON
Tue 06:56:26 PM 27.9833 -82.7833 180° South 228 262 4,000 -250 Descending Tampa TRACON
Tue 06:57:26 PM 27.9167 -82.7833 180° South 215 247 4,100  Climbing Tampa TRACON
Tue 06:58:20 PM 27.8667 -82.7667 164° South 209 241 4,000 -450 Descending Tampa TRACON
Tue 06:59:26 PM 27.8167 -82.7667 180° South 199 229 3,200 -864 Descending Tampa TRACON
Tue 07:00:32 PM 27.7667 -82.7167 138° Southeast 202 232 2,100 -682 Descending Tampa TRACON
Tue 07:01:38 PM 27.8167 -82.6833 31° Northeast 177 204 1,700 -500 Descending Tampa TRACON
Tue 07:02:32 PM 27.8500 -82.6833 360° North 140 161 1,100 -678 Descending Tampa TRACON
Tue 07:03:33 PM 27.8833 -82.6833 360° North 130 150 400 -689 Descending Tampa TRACON

Login

Don't have an account? Register now (free) for customized features, flight alerts, and more!